createdAt,value
2018-11-04T00:00:07.501Z,21.52
2018-11-04T00:01:07.507Z,21.58
2018-11-04T00:02:07.474Z,21.66
2018-11-04T00:03:07.460Z,21.57
2018-11-04T00:04:07.502Z,21.51
2018-11-04T00:05:07.439Z,21.57
2018-11-04T00:06:07.427Z,21.51
2018-11-04T00:07:07.416Z,21.51
2018-11-04T00:08:07.410Z,21.52
2018-11-04T00:09:07.427Z,21.54
2018-11-04T00:10:07.393Z,21.52
2018-11-04T00:11:07.371Z,21.58
2018-11-04T00:12:07.360Z,21.51
2018-11-04T00:13:07.382Z,21.57
2018-11-04T00:14:07.455Z,21.51
2018-11-04T00:15:07.327Z,21.51
2018-11-04T00:16:07.315Z,21.57
2018-11-04T00:17:07.305Z,21.57
2018-11-04T00:18:07.294Z,21.51
2018-11-04T00:19:07.330Z,21.52
2018-11-04T00:20:07.271Z,21.54
2018-11-04T00:21:07.261Z,21.51
2018-11-04T00:22:07.251Z,21.60
2018-11-04T00:23:07.262Z,21.51
2018-11-04T00:24:07.322Z,21.60
2018-11-04T00:25:07.215Z,21.54
2018-11-04T00:26:07.233Z,21.54
2018-11-04T00:27:07.199Z,21.50
2018-11-04T00:28:07.182Z,21.52
2018-11-04T00:29:07.190Z,21.51
2018-11-04T00:30:07.159Z,21.48
2018-11-04T00:31:07.181Z,21.52
2018-11-04T00:32:07.138Z,21.51
2018-11-04T00:33:07.127Z,21.57
2018-11-04T00:34:07.117Z,21.55
2018-11-04T00:35:07.103Z,21.57
2018-11-04T00:36:07.118Z,21.60
2018-11-04T00:37:07.106Z,21.54
2018-11-04T00:38:07.069Z,21.58
2018-11-04T00:39:07.059Z,21.60
2018-11-04T00:40:07.047Z,21.54
2018-11-04T00:41:07.038Z,21.58
2018-11-04T00:42:07.062Z,21.60
2018-11-04T00:43:07.013Z,21.54
2018-11-04T00:44:07.005Z,21.54
2018-11-04T00:45:07.007Z,21.51
2018-11-04T00:46:06.981Z,21.54
2018-11-04T00:47:06.995Z,21.54
2018-11-04T00:48:06.984Z,21.57
2018-11-04T00:49:06.947Z,21.60
2018-11-04T00:50:06.935Z,21.57
2018-11-04T00:51:06.926Z,21.52
2018-11-04T00:52:06.913Z,21.52
2018-11-04T00:53:06.944Z,21.51
2018-11-04T00:54:06.891Z,21.64
2018-11-04T00:55:06.879Z,21.60
2018-11-04T00:56:06.868Z,21.60
2018-11-04T00:57:06.858Z,21.51
2018-11-04T00:58:06.881Z,21.54
2018-11-04T00:59:06.834Z,21.58
2018-11-04T01:00:06.823Z,21.57
2018-11-04T01:01:06.813Z,21.57
2018-11-04T01:02:06.801Z,21.52
2018-11-04T01:03:06.807Z,21.55
2018-11-04T01:04:06.780Z,21.58
2018-11-04T01:05:06.766Z,21.60
2018-11-04T01:06:06.758Z,21.60
2018-11-04T01:07:06.769Z,21.60
2018-11-04T01:08:06.734Z,21.67
2018-11-04T01:09:06.792Z,21.51
2018-11-04T01:10:06.711Z,21.57
2018-11-04T01:11:06.726Z,21.52
2018-11-04T01:12:06.688Z,21.55
2018-11-04T01:13:06.677Z,21.55
2018-11-04T01:14:06.669Z,21.51
2018-11-04T01:15:06.681Z,21.57
2018-11-04T01:16:06.646Z,21.55
2018-11-04T01:17:06.635Z,21.60
2018-11-04T01:18:06.627Z,21.55
2018-11-04T01:19:06.612Z,21.50
2018-11-04T01:20:06.625Z,21.57
2018-11-04T01:21:06.596Z,21.57
2018-11-04T01:22:06.577Z,21.51
2018-11-04T01:23:06.565Z,21.54
2018-11-04T01:24:06.555Z,21.54
2018-11-04T01:25:06.574Z,21.58
2018-11-04T01:26:06.531Z,21.66
2018-11-04T01:27:06.551Z,21.62
2018-11-04T01:28:06.509Z,21.69
2018-11-04T01:29:06.507Z,21.60
2018-11-04T01:30:06.501Z,21.62
2018-11-04T01:31:06.500Z,21.61
2018-11-04T01:32:06.503Z,21.58
2018-11-04T01:33:06.456Z,21.57
2018-11-04T01:34:06.443Z,21.61
2018-11-04T01:35:06.433Z,21.52
2018-11-04T01:36:06.421Z,21.61
2018-11-04T01:37:06.435Z,21.61
2018-11-04T01:38:06.422Z,21.58
2018-11-04T01:39:06.388Z,21.61
2018-11-04T01:40:06.384Z,21.58
2018-11-04T01:41:06.366Z,21.55
2018-11-04T01:42:06.353Z,21.60
2018-11-04T01:43:06.369Z,21.55
2018-11-04T01:44:06.354Z,21.62
2018-11-04T01:45:06.323Z,21.61
2018-11-04T01:46:06.333Z,21.54
2018-11-04T01:47:06.297Z,21.67
2018-11-04T01:48:06.284Z,21.62
2018-11-04T01:49:06.275Z,21.61
2018-11-04T01:50:06.264Z,21.58
2018-11-04T01:51:06.280Z,21.55
2018-11-04T01:52:06.240Z,21.66
2018-11-04T01:53:06.230Z,21.64
2018-11-04T01:54:06.218Z,21.60
2018-11-04T01:55:06.208Z,21.54
2018-11-04T01:56:06.221Z,21.66
2018-11-04T01:57:06.184Z,21.57
2018-11-04T01:58:06.179Z,21.61
2018-11-04T01:59:06.167Z,21.66
2018-11-04T02:00:06.152Z,21.62
2018-11-04T02:01:06.163Z,21.60
2018-11-04T02:02:06.130Z,21.66
2018-11-04T02:03:06.119Z,21.66
2018-11-04T02:04:06.108Z,21.62
2018-11-04T02:05:06.135Z,21.62
2018-11-04T02:06:06.085Z,21.61
2018-11-04T02:07:06.071Z,21.64
2018-11-04T02:08:06.061Z,21.58
2018-11-04T02:09:06.050Z,21.62
2018-11-04T02:10:06.078Z,21.62
2018-11-04T02:11:06.028Z,21.66
2018-11-04T02:12:06.017Z,21.66
2018-11-04T02:13:06.004Z,21.66
2018-11-04T02:14:05.995Z,21.62
2018-11-04T02:15:06.007Z,21.61
2018-11-04T02:16:05.972Z,21.64
2018-11-04T02:17:05.959Z,21.67
2018-11-04T02:18:05.949Z,21.57
2018-11-04T02:19:05.963Z,21.61
2018-11-04T02:20:05.927Z,21.62
2018-11-04T02:21:05.914Z,21.61
2018-11-04T02:22:05.930Z,21.55
2018-11-04T02:23:05.893Z,21.55
2018-11-04T02:24:05.883Z,21.61
2018-11-04T02:25:05.871Z,21.66
2018-11-04T02:26:05.885Z,21.60
2018-11-04T02:27:05.848Z,21.64
2018-11-04T02:28:05.836Z,21.61
2018-11-04T02:29:05.826Z,21.64
2018-11-04T02:30:05.816Z,21.62
2018-11-04T02:31:05.835Z,21.61
2018-11-04T02:32:05.800Z,21.70
2018-11-04T02:33:05.780Z,21.67
2018-11-04T02:34:05.769Z,21.62
2018-11-04T02:35:05.759Z,21.66
2018-11-04T02:36:05.773Z,21.64
2018-11-04T02:37:05.736Z,21.64
2018-11-04T02:38:05.726Z,21.70
2018-11-04T02:39:05.738Z,21.64
2018-11-04T02:40:05.703Z,21.66
2018-11-04T02:41:05.690Z,21.67
2018-11-04T02:42:05.681Z,21.60
2018-11-04T02:43:05.668Z,21.62
2018-11-04T02:44:05.696Z,21.62
2018-11-04T02:45:05.647Z,21.61
2018-11-04T02:46:05.636Z,21.67
2018-11-04T02:47:05.790Z,21.70
2018-11-04T02:48:05.613Z,21.70
2018-11-04T02:49:05.636Z,21.64
2018-11-04T02:50:05.591Z,21.67
2018-11-04T02:51:05.581Z,21.66
2018-11-04T02:52:05.574Z,21.64
2018-11-04T02:53:05.560Z,21.64
2018-11-04T02:54:05.569Z,21.67
2018-11-04T02:55:05.537Z,21.64
2018-11-04T02:56:05.523Z,21.72
2018-11-04T02:57:05.538Z,21.62
2018-11-04T02:58:05.528Z,21.64
2018-11-04T02:59:05.491Z,21.66
2018-11-04T03:00:05.485Z,21.69
2018-11-04T03:01:05.468Z,21.67
2018-11-04T03:02:05.609Z,21.67
2018-11-04T03:03:05.469Z,21.62
2018-11-04T03:04:05.435Z,21.62
2018-11-04T03:05:05.423Z,21.64
2018-11-04T03:06:05.427Z,21.64
2018-11-04T03:07:05.401Z,21.66
2018-11-04T03:08:05.421Z,21.62
2018-11-04T03:09:05.379Z,21.67
2018-11-04T03:10:05.367Z,21.66
2018-11-04T03:11:05.356Z,21.72
2018-11-04T03:12:05.347Z,21.66
2018-11-04T03:13:05.358Z,21.72
2018-11-04T03:14:05.322Z,21.69
2018-11-04T03:15:05.311Z,21.72
2018-11-04T03:16:05.315Z,21.64
2018-11-04T03:17:05.288Z,21.66
2018-11-04T03:18:05.311Z,21.66
2018-11-04T03:19:05.267Z,21.66
2018-11-04T03:20:05.256Z,21.69
2018-11-04T03:21:05.245Z,21.69
2018-11-04T03:22:05.234Z,21.73
2018-11-04T03:23:05.247Z,21.64
2018-11-04T03:24:05.244Z,21.69
2018-11-04T03:25:05.204Z,21.66
2018-11-04T03:26:05.188Z,21.69
2018-11-04T03:27:05.181Z,21.61
2018-11-04T03:28:05.166Z,21.69
2018-11-04T03:29:05.181Z,21.67
2018-11-04T03:30:05.143Z,21.64
2018-11-04T03:31:05.132Z,21.62
2018-11-04T03:32:05.123Z,21.67
2018-11-04T03:33:05.110Z,21.64
2018-11-04T03:34:05.122Z,21.70
2018-11-04T03:35:05.088Z,21.69
2018-11-04T03:36:05.080Z,21.64
2018-11-04T03:37:05.096Z,21.67
2018-11-04T03:38:05.057Z,21.70
2018-11-04T03:39:05.042Z,21.69
2018-11-04T03:40:05.031Z,21.69
2018-11-04T03:41:05.020Z,21.69
2018-11-04T03:42:05.033Z,21.67
2018-11-04T03:43:04.999Z,21.72
2018-11-04T03:44:04.988Z,21.69
2018-11-04T03:45:04.999Z,21.76
2018-11-04T03:46:04.972Z,21.66
2018-11-04T03:47:04.952Z,21.66
2018-11-04T03:48:04.983Z,21.62
2018-11-04T03:49:04.932Z,21.77
2018-11-04T03:50:04.919Z,21.70
2018-11-04T03:51:04.908Z,21.66
2018-11-04T03:52:04.897Z,21.64
2018-11-04T03:53:04.913Z,21.73
2018-11-04T03:54:04.878Z,21.66
2018-11-04T03:55:04.895Z,21.76
2018-11-04T03:56:04.852Z,21.73
2018-11-04T03:57:04.843Z,21.66
2018-11-04T03:58:04.832Z,21.73
2018-11-04T03:59:04.819Z,21.66
2018-11-04T04:00:04.833Z,21.64
2018-11-04T04:01:04.800Z,21.76
2018-11-04T04:02:04.787Z,21.72
2018-11-04T04:03:04.775Z,21.66
2018-11-04T04:04:04.769Z,21.66
2018-11-04T04:05:04.777Z,21.77
2018-11-04T04:06:04.774Z,21.66
2018-11-04T04:07:04.733Z,21.66
2018-11-04T04:08:04.720Z,21.64
2018-11-04T04:09:04.714Z,21.66
2018-11-04T04:10:04.699Z,21.67
2018-11-04T04:11:04.774Z,21.69
2018-11-04T04:12:04.677Z,21.75
2018-11-04T04:13:04.664Z,21.76
2018-11-04T04:14:04.651Z,21.76
2018-11-04T04:15:04.640Z,21.76
2018-11-04T04:16:04.660Z,21.69
2018-11-04T04:17:04.618Z,21.70
2018-11-04T04:18:04.610Z,21.76
2018-11-04T04:19:04.596Z,21.76
2018-11-04T04:20:04.585Z,21.75
2018-11-04T04:21:04.606Z,21.69
2018-11-04T04:22:04.562Z,21.66
2018-11-04T04:23:04.550Z,21.70
2018-11-04T04:24:04.539Z,21.79
2018-11-04T04:25:04.528Z,21.75
2018-11-04T04:26:04.549Z,21.75
2018-11-04T04:27:04.511Z,21.76
2018-11-04T04:28:04.495Z,21.75
2018-11-04T04:29:04.484Z,21.82
2018-11-04T04:30:04.472Z,21.73
2018-11-04T04:31:04.489Z,21.75
2018-11-04T04:32:04.476Z,21.79
2018-11-04T04:33:04.440Z,21.76
2018-11-04T04:34:04.428Z,21.76
2018-11-04T04:35:04.417Z,21.73
2018-11-04T04:36:04.407Z,21.76
2018-11-04T04:37:04.419Z,21.75
2018-11-04T04:38:04.383Z,21.75
2018-11-04T04:39:04.373Z,21.79
2018-11-04T04:40:04.362Z,21.75
2018-11-04T04:41:04.375Z,21.72
2018-11-04T04:42:04.368Z,21.77
2018-11-04T04:43:04.328Z,21.75
2018-11-04T04:44:04.318Z,21.70
2018-11-04T04:45:04.306Z,21.75
2018-11-04T04:46:04.320Z,21.73
2018-11-04T04:47:04.284Z,21.80
2018-11-04T04:48:04.271Z,21.73
2018-11-04T04:49:04.260Z,21.75
2018-11-04T04:50:04.248Z,21.76
2018-11-04T04:51:04.272Z,21.75
2018-11-04T04:52:04.227Z,21.73
2018-11-04T04:53:04.215Z,21.75
2018-11-04T04:54:04.204Z,21.76
2018-11-04T04:55:04.192Z,21.77
2018-11-04T04:56:04.215Z,21.76
2018-11-04T04:57:04.170Z,21.75
2018-11-04T04:58:04.159Z,21.79
2018-11-04T04:59:04.149Z,21.82
2018-11-04T05:00:04.137Z,21.79
2018-11-04T05:01:04.168Z,21.75
2018-11-04T05:02:04.116Z,21.79
2018-11-04T05:03:04.107Z,21.82
2018-11-04T05:04:04.093Z,21.80
2018-11-04T05:05:04.081Z,21.76
2018-11-04T05:06:04.095Z,21.79
2018-11-04T05:07:04.058Z,21.77
2018-11-04T05:08:04.071Z,21.73
2018-11-04T05:09:04.063Z,21.85
2018-11-04T05:10:04.053Z,21.83
2018-11-04T05:11:04.015Z,21.77
2018-11-04T05:12:04.005Z,21.75
2018-11-04T05:13:04.019Z,21.79
2018-11-04T05:14:03.980Z,21.79
2018-11-04T05:15:03.995Z,21.82
2018-11-04T05:16:03.961Z,21.79
2018-11-04T05:17:03.949Z,21.85
2018-11-04T05:18:03.937Z,21.80
2018-11-04T05:19:03.927Z,21.82
2018-11-04T05:20:03.938Z,21.82
2018-11-04T05:21:03.932Z,21.82
2018-11-04T05:22:03.898Z,21.79
2018-11-04T05:23:03.881Z,21.79
2018-11-04T05:24:03.869Z,21.85
2018-11-04T05:25:03.884Z,21.83
2018-11-04T05:26:03.850Z,21.83
2018-11-04T05:27:03.838Z,21.76
2018-11-04T05:28:03.825Z,21.85
2018-11-04T05:29:03.837Z,21.83
2018-11-04T05:30:03.804Z,21.83
2018-11-04T05:31:03.792Z,21.83
2018-11-04T05:32:03.785Z,21.85
2018-11-04T05:33:03.769Z,21.76
2018-11-04T05:34:03.782Z,21.79
2018-11-04T05:35:03.753Z,21.83
2018-11-04T05:36:03.736Z,21.82
2018-11-04T05:37:03.725Z,21.79
2018-11-04T05:38:03.797Z,21.79
2018-11-04T05:39:03.729Z,21.82
2018-11-04T05:40:03.691Z,21.82
2018-11-04T05:41:03.679Z,21.76
2018-11-04T05:42:03.669Z,21.83
2018-11-04T05:43:03.659Z,21.83
2018-11-04T05:44:03.670Z,21.79
2018-11-04T05:45:03.636Z,21.92
2018-11-04T05:46:03.625Z,21.85
2018-11-04T05:47:03.615Z,21.82
2018-11-04T05:48:03.603Z,21.77
2018-11-04T05:49:03.618Z,21.85
2018-11-04T05:50:03.582Z,21.82
2018-11-04T05:51:03.569Z,21.83
2018-11-04T05:52:03.557Z,21.83
2018-11-04T05:53:03.545Z,21.79
2018-11-04T05:54:03.563Z,21.89
2018-11-04T05:55:03.525Z,21.88
2018-11-04T05:56:03.516Z,21.80
2018-11-04T05:57:03.502Z,21.80
2018-11-04T05:58:03.492Z,21.91
2018-11-04T05:59:03.504Z,21.88
2018-11-04T06:00:03.470Z,21.82
2018-11-04T06:01:03.480Z,21.79
2018-11-04T06:02:03.448Z,21.80
2018-11-04T06:03:03.434Z,21.92
2018-11-04T06:04:03.426Z,21.85
2018-11-04T06:05:03.412Z,21.95
2018-11-04T06:06:03.428Z,21.89
2018-11-04T06:07:03.391Z,21.80
2018-11-04T06:08:03.408Z,21.95
2018-11-04T06:09:03.369Z,21.91
2018-11-04T06:10:03.357Z,21.79
2018-11-04T06:11:03.371Z,21.89
2018-11-04T06:12:03.336Z,21.83
2018-11-04T06:13:03.322Z,21.93
2018-11-04T06:14:03.336Z,21.89
2018-11-04T06:15:03.329Z,21.83
2018-11-04T06:16:03.289Z,21.85
2018-11-04T06:17:03.281Z,21.91
2018-11-04T06:18:03.269Z,21.89
2018-11-04T06:19:03.257Z,21.91
2018-11-04T06:20:03.282Z,21.88
2018-11-04T06:21:03.235Z,21.93
2018-11-04T06:22:03.222Z,21.89
2018-11-04T06:23:03.210Z,21.89
2018-11-04T06:24:03.203Z,21.88
2018-11-04T06:25:03.232Z,21.91
2018-11-04T06:26:03.178Z,21.91
2018-11-04T06:27:03.165Z,21.88
2018-11-04T06:28:03.156Z,21.93
2018-11-04T06:29:03.146Z,21.93
2018-11-04T06:30:03.157Z,21.88
2018-11-04T06:31:03.155Z,21.88
2018-11-04T06:32:03.111Z,21.89
2018-11-04T06:33:03.099Z,21.92
2018-11-04T06:34:03.090Z,21.83
2018-11-04T06:35:03.081Z,21.93
2018-11-04T06:36:03.093Z,21.83
2018-11-04T06:37:03.057Z,21.89
2018-11-04T06:38:03.045Z,21.96
2018-11-04T06:39:03.032Z,21.92
2018-11-04T06:40:03.022Z,21.91
2018-11-04T06:41:03.076Z,21.88
2018-11-04T06:42:02.999Z,21.88
2018-11-04T06:43:02.996Z,21.95
2018-11-04T06:44:03.003Z,21.89
2018-11-04T06:45:02.969Z,21.95
2018-11-04T06:46:02.955Z,21.95
2018-11-04T06:47:02.963Z,21.89
2018-11-04T06:48:02.932Z,22.00
2018-11-04T06:49:02.947Z,21.95
2018-11-04T06:50:02.909Z,21.91
2018-11-04T06:51:02.899Z,21.91
2018-11-04T06:52:02.911Z,21.93
2018-11-04T06:53:02.875Z,21.85
2018-11-04T06:54:02.866Z,21.92
2018-11-04T06:55:02.854Z,21.91
2018-11-04T06:56:02.843Z,21.91
2018-11-04T06:57:02.856Z,21.92
2018-11-04T06:58:02.847Z,21.91
2018-11-04T06:59:02.810Z,21.95
2018-11-04T07:00:02.854Z,21.93
2018-11-04T07:01:02.787Z,21.93
2018-11-04T07:02:02.775Z,21.89
2018-11-04T07:03:02.791Z,21.92
2018-11-04T07:04:02.753Z,21.95
2018-11-04T07:05:02.743Z,21.89
2018-11-04T07:06:02.730Z,21.98
2018-11-04T07:07:02.720Z,21.99
2018-11-04T07:08:02.732Z,21.93
2018-11-04T07:09:02.792Z,21.91
2018-11-04T07:10:02.719Z,21.91
2018-11-04T07:11:02.674Z,21.93
2018-11-04T07:12:02.666Z,21.96
2018-11-04T07:13:02.653Z,21.93
2018-11-04T07:14:02.643Z,21.92
2018-11-04T07:15:02.664Z,21.95
2018-11-04T07:16:02.634Z,21.96
2018-11-04T07:17:02.608Z,21.98
2018-11-04T07:18:02.598Z,21.92
2018-11-04T07:19:02.587Z,21.95
2018-11-04T07:20:02.724Z,21.98
2018-11-04T07:21:02.563Z,21.95
2018-11-04T07:22:02.555Z,21.96
2018-11-04T07:23:02.542Z,21.98
2018-11-04T07:24:02.530Z,21.99
2018-11-04T07:25:02.544Z,21.93
2018-11-04T07:26:02.511Z,21.99
2018-11-04T07:27:02.497Z,21.95
2018-11-04T07:28:02.487Z,22.00
2018-11-04T07:29:02.475Z,21.95
2018-11-04T07:30:02.496Z,21.92
2018-11-04T07:31:02.451Z,21.92
2018-11-04T07:32:02.510Z,21.96
2018-11-04T07:33:02.429Z,21.93
2018-11-04T07:34:02.417Z,21.95
2018-11-04T07:35:02.432Z,21.92
2018-11-04T07:36:02.396Z,21.99
2018-11-04T07:37:02.384Z,21.93
2018-11-04T07:38:02.384Z,21.99
2018-11-04T07:39:02.362Z,22.00
2018-11-04T07:40:02.379Z,21.99
2018-11-04T07:41:02.340Z,21.99
2018-11-04T07:42:02.328Z,21.99
2018-11-04T07:43:02.319Z,22.08
2018-11-04T07:44:02.311Z,22.04
2018-11-04T07:45:02.319Z,21.99
2018-11-04T07:46:02.285Z,21.99
2018-11-04T07:47:02.298Z,21.91
2018-11-04T07:48:02.262Z,22.04
2018-11-04T07:49:02.251Z,21.99
2018-11-04T07:50:02.272Z,22.08
2018-11-04T07:51:02.236Z,21.99
2018-11-04T07:52:02.220Z,21.99
2018-11-04T07:53:02.208Z,21.99
2018-11-04T07:54:02.195Z,22.07
2018-11-04T07:55:02.217Z,22.10
2018-11-04T07:56:02.173Z,21.98
2018-11-04T07:57:02.260Z,22.08
2018-11-04T07:58:02.149Z,22.10
2018-11-04T07:59:02.141Z,22.10
2018-11-04T08:00:02.153Z,22.04
2018-11-04T08:01:02.285Z,22.08
2018-11-04T08:02:02.106Z,22.08
2018-11-04T08:03:02.097Z,22.10
2018-11-04T08:04:02.216Z,22.07
2018-11-04T08:05:02.073Z,22.07
2018-11-04T08:06:02.061Z,22.06
2018-11-04T08:07:02.051Z,22.06
2018-11-04T08:08:02.038Z,22.07
2018-11-04T08:09:02.057Z,22.04
2018-11-04T08:10:02.018Z,22.06
2018-11-04T08:11:02.008Z,22.06
2018-11-04T08:12:01.995Z,22.10
2018-11-04T08:13:01.982Z,22.04
2018-11-04T08:14:02.012Z,22.17
2018-11-04T08:15:01.960Z,22.10
2018-11-04T08:16:01.948Z,22.10
2018-11-04T08:17:01.941Z,22.08
2018-11-04T08:18:01.933Z,22.13
2018-11-04T08:19:01.940Z,22.13
2018-11-04T08:20:01.905Z,22.13
2018-11-04T08:21:01.894Z,22.13
2018-11-04T08:22:01.885Z,22.02
2018-11-04T08:23:01.903Z,22.13
2018-11-04T08:24:01.859Z,22.11
2018-11-04T08:25:01.848Z,22.10
2018-11-04T08:26:01.837Z,22.15
2018-11-04T08:27:01.826Z,22.14
2018-11-04T08:28:01.847Z,22.13
2018-11-04T08:29:01.805Z,22.17
2018-11-04T08:30:01.791Z,22.13
2018-11-04T08:31:01.781Z,22.15
2018-11-04T08:32:01.770Z,22.11
2018-11-04T08:33:01.791Z,22.18
2018-11-04T08:34:01.750Z,22.13
2018-11-04T08:35:01.741Z,22.14
2018-11-04T08:36:01.725Z,22.11
2018-11-04T08:37:01.715Z,22.18
2018-11-04T08:38:01.730Z,22.15
2018-11-04T08:39:01.696Z,22.08
2018-11-04T08:40:01.817Z,22.10
2018-11-04T08:41:01.694Z,22.13
2018-11-04T08:42:01.661Z,22.22
2018-11-04T08:43:01.648Z,22.08
2018-11-04T08:44:01.635Z,22.11
2018-11-04T08:45:01.627Z,22.10
2018-11-04T08:46:01.639Z,22.11
2018-11-04T08:47:01.602Z,22.14
2018-11-04T08:48:01.591Z,22.18
2018-11-04T08:49:01.582Z,22.15
2018-11-04T08:50:01.569Z,22.18
2018-11-04T08:51:01.586Z,22.20
2018-11-04T08:52:01.548Z,22.11
2018-11-04T08:53:01.537Z,22.20
2018-11-04T08:54:01.548Z,22.18
2018-11-04T08:55:01.516Z,22.14
2018-11-04T08:56:01.505Z,22.08
2018-11-04T08:57:01.491Z,22.13
2018-11-04T08:58:01.480Z,22.20
2018-11-04T08:59:01.495Z,22.15
2018-11-04T09:00:01.557Z,22.17
2018-11-04T09:01:01.447Z,22.11
2018-11-04T09:02:01.435Z,22.20
2018-11-04T09:03:01.423Z,22.20
2018-11-04T09:04:01.439Z,22.20
2018-11-04T09:05:01.403Z,22.15
2018-11-04T09:06:01.392Z,22.18
2018-11-04T09:07:01.380Z,22.22
2018-11-04T09:08:01.367Z,22.22
2018-11-04T09:09:01.381Z,22.20
2018-11-04T09:10:01.346Z,22.23
2018-11-04T09:11:01.335Z,22.25
2018-11-04T09:12:01.323Z,22.20
2018-11-04T09:13:01.311Z,22.20
2018-11-04T09:14:01.384Z,22.22
2018-11-04T09:15:01.290Z,22.15
2018-11-04T09:16:01.279Z,22.22
2018-11-04T09:17:01.266Z,22.18
2018-11-04T09:18:01.279Z,22.20
2018-11-04T09:19:01.247Z,22.22
2018-11-04T09:20:01.232Z,22.22
2018-11-04T09:21:01.222Z,22.23
2018-11-04T09:22:01.421Z,22.18
2018-11-04T09:23:01.222Z,22.22
2018-11-04T09:24:01.189Z,22.25
2018-11-04T09:25:01.181Z,22.23
2018-11-04T09:26:01.166Z,22.26
2018-11-04T09:27:01.156Z,22.18
2018-11-04T09:28:01.178Z,22.25
2018-11-04T09:29:01.200Z,22.18
2018-11-04T09:30:01.123Z,22.20
2018-11-04T09:31:01.111Z,22.26
2018-11-04T09:32:01.100Z,22.28
2018-11-04T09:33:01.131Z,22.29
2018-11-04T09:34:01.080Z,22.18
2018-11-04T09:35:01.210Z,22.29
2018-11-04T09:36:01.193Z,22.26
2018-11-04T09:37:01.042Z,22.29
2018-11-04T09:38:01.055Z,22.22
2018-11-04T09:39:01.045Z,22.29
2018-11-04T09:40:01.011Z,22.26
2018-11-04T09:41:00.997Z,22.26
2018-11-04T09:42:00.987Z,22.26
2018-11-04T09:43:00.975Z,22.23
2018-11-04T09:44:00.990Z,22.29
2018-11-04T09:45:00.953Z,22.28
2018-11-04T09:46:00.945Z,22.28
2018-11-04T09:47:00.933Z,22.28
2018-11-04T09:48:00.920Z,22.28
2018-11-04T09:49:00.944Z,22.30
2018-11-04T09:50:00.911Z,22.29
2018-11-04T09:51:00.887Z,22.25
2018-11-04T09:52:00.877Z,22.25
2018-11-04T09:53:00.864Z,22.26
2018-11-04T09:54:00.878Z,22.25
2018-11-04T09:55:00.867Z,22.25
2018-11-04T09:56:00.833Z,22.25
2018-11-04T09:57:00.821Z,22.20
2018-11-04T09:58:00.810Z,22.35
2018-11-04T09:59:00.797Z,22.33
2018-11-04T10:00:00.817Z,22.33
2018-11-04T10:01:00.776Z,22.29
2018-11-04T10:02:00.764Z,22.35
2018-11-04T10:03:00.752Z,22.29
2018-11-04T10:04:00.744Z,22.29
2018-11-04T10:05:00.754Z,22.25
2018-11-04T10:06:00.718Z,22.36
2018-11-04T10:07:00.792Z,22.33
2018-11-04T10:08:00.698Z,22.29
2018-11-04T10:09:00.684Z,22.35
2018-11-04T10:10:00.674Z,22.29
2018-11-04T10:11:00.662Z,22.33
2018-11-04T10:12:00.678Z,22.36
2018-11-04T10:13:00.641Z,22.36
2018-11-04T10:14:00.657Z,22.33
2018-11-04T10:15:00.619Z,22.35
2018-11-04T10:16:00.644Z,22.33
2018-11-04T10:17:00.605Z,22.32
2018-11-04T10:18:00.584Z,22.38
2018-11-04T10:19:00.658Z,22.38
2018-11-04T10:20:00.984Z,22.38
2018-11-04T10:21:00.955Z,22.33
2018-11-04T10:22:00.569Z,22.36
2018-11-04T10:23:00.564Z,22.35
2018-11-04T10:24:00.518Z,22.30
2018-11-04T10:25:00.541Z,22.41
2018-11-04T10:26:00.493Z,22.41
2018-11-04T10:27:00.484Z,22.39
2018-11-04T10:28:00.507Z,22.43
2018-11-04T10:29:00.465Z,22.38
2018-11-04T10:30:00.482Z,22.33
2018-11-04T10:31:00.438Z,22.33
2018-11-04T10:32:00.428Z,22.39
2018-11-04T10:33:00.417Z,22.35
2018-11-04T10:34:00.404Z,22.36
2018-11-04T10:35:00.419Z,22.29
2018-11-04T10:36:00.386Z,22.41
2018-11-04T10:37:00.396Z,22.35
2018-11-04T10:38:00.396Z,22.36
2018-11-04T10:39:00.352Z,22.38
2018-11-04T10:40:00.338Z,22.38
2018-11-04T10:41:00.326Z,22.38
2018-11-04T10:42:00.317Z,22.41
2018-11-04T10:43:00.328Z,22.30
2018-11-04T10:44:00.294Z,22.36
2018-11-04T10:45:00.308Z,22.36
2018-11-04T10:46:00.270Z,22.33
2018-11-04T10:47:00.260Z,22.32
2018-11-04T10:48:00.248Z,22.36
2018-11-04T10:49:00.271Z,22.41
2018-11-04T10:50:00.318Z,22.38
2018-11-04T10:51:00.216Z,22.41
2018-11-04T10:52:00.205Z,22.39
2018-11-04T10:53:00.191Z,22.32
2018-11-04T10:54:00.208Z,22.39
2018-11-04T10:55:00.170Z,22.32
2018-11-04T10:56:00.159Z,22.33
2018-11-04T10:57:00.171Z,22.36
2018-11-04T10:58:00.138Z,22.35
2018-11-04T10:59:00.203Z,22.36
2018-11-04T11:00:00.140Z,22.35
2018-11-04T11:01:00.109Z,22.44
2018-11-04T11:02:00.092Z,22.36
2018-11-04T11:03:00.106Z,22.38
2018-11-04T11:04:00.070Z,22.41
2018-11-04T11:05:00.060Z,22.47
2018-11-04T11:06:00.082Z,22.43
2018-11-04T11:07:00.130Z,22.45
2018-11-04T11:08:00.026Z,22.38
2018-11-04T11:09:00.016Z,22.45
2018-11-04T11:10:00.002Z,22.45
2018-11-04T11:11:00.116Z,22.45
2018-11-04T11:11:59.984Z,22.44
2018-11-04T11:12:59.968Z,22.45
2018-11-04T11:13:59.970Z,22.45
2018-11-04T11:14:59.947Z,22.39
2018-11-04T11:15:59.967Z,22.48
2018-11-04T11:16:59.925Z,22.45
2018-11-04T11:17:59.914Z,22.48
2018-11-04T11:18:59.901Z,22.50
2018-11-04T11:19:59.915Z,22.50
2018-11-04T11:20:59.880Z,22.45
2018-11-04T11:21:59.893Z,22.53
2018-11-04T11:23:00.037Z,22.53
2018-11-04T11:23:59.845Z,22.48
2018-11-04T11:24:59.835Z,22.50
2018-11-04T11:25:59.823Z,22.53
2018-11-04T11:26:59.841Z,22.54
2018-11-04T11:27:59.801Z,22.47
2018-11-04T11:28:59.789Z,22.51
2018-11-04T11:29:59.820Z,22.51
2018-11-04T11:30:59.771Z,22.50
2018-11-04T11:31:59.782Z,22.44
2018-11-04T11:32:59.772Z,22.45
2018-11-04T11:33:59.734Z,22.51
2018-11-04T11:34:59.724Z,22.47
2018-11-04T11:35:59.712Z,22.53
2018-11-04T11:36:59.701Z,22.50
2018-11-04T11:37:59.835Z,22.53
2018-11-04T11:38:59.681Z,22.50
2018-11-04T11:39:59.669Z,22.51
2018-11-04T11:40:59.657Z,22.59
2018-11-04T11:41:59.646Z,22.51
2018-11-04T11:42:59.659Z,22.51
2018-11-04T11:43:59.624Z,22.55
2018-11-04T11:44:59.689Z,22.47
2018-11-04T11:45:59.626Z,22.57
2018-11-04T11:46:59.590Z,22.60
2018-11-04T11:47:59.602Z,22.55
2018-11-04T11:48:59.568Z,22.63
2018-11-04T11:49:59.591Z,22.55
2018-11-04T11:50:59.546Z,22.55
2018-11-04T11:51:59.534Z,22.60
2018-11-04T11:52:59.528Z,22.53
2018-11-04T11:53:59.513Z,22.65
2018-11-04T11:54:59.533Z,22.57
2018-11-04T11:55:59.488Z,22.54
2018-11-04T11:56:59.477Z,22.62
2018-11-04T11:57:59.493Z,22.57
2018-11-04T11:58:59.454Z,22.65
2018-11-04T11:59:59.444Z,22.63
2018-11-04T12:00:59.433Z,22.65
2018-11-04T12:01:59.495Z,22.65
2018-11-04T12:02:59.451Z,22.62
2018-11-04T12:03:59.403Z,22.62
2018-11-04T12:04:59.391Z,22.69
2018-11-04T12:05:59.377Z,22.59
2018-11-04T12:06:59.365Z,22.66
2018-11-04T12:07:59.379Z,22.62
2018-11-04T12:08:59.346Z,22.62
2018-11-04T12:09:59.332Z,22.62
2018-11-04T12:10:59.350Z,22.60
2018-11-04T12:11:59.309Z,22.60
2018-11-04T12:12:59.298Z,22.59
2018-11-04T12:13:59.289Z,22.65
2018-11-04T12:14:59.277Z,22.59
2018-11-04T12:15:59.289Z,22.55
2018-11-04T12:16:59.254Z,22.63
2018-11-04T12:17:59.246Z,22.59
2018-11-04T12:18:59.255Z,22.65
2018-11-04T12:19:59.220Z,22.63
2018-11-04T12:20:59.210Z,22.65
2018-11-04T12:21:59.223Z,22.66
2018-11-04T12:22:59.189Z,22.63
2018-11-04T12:23:59.175Z,22.62
2018-11-04T12:24:59.164Z,22.63
2018-11-04T12:25:59.178Z,22.60
2018-11-04T12:26:59.141Z,22.63
2018-11-04T12:27:59.135Z,22.68
2018-11-04T12:28:59.125Z,22.62
2018-11-04T12:29:59.124Z,22.59
2018-11-04T12:30:59.096Z,22.57
2018-11-04T12:31:59.089Z,22.62
2018-11-04T12:32:59.075Z,22.65
2018-11-04T12:33:59.088Z,22.60
2018-11-04T12:34:59.092Z,22.65
2018-11-04T12:35:59.042Z,22.69
2018-11-04T12:36:59.033Z,22.60
2018-11-04T12:37:59.045Z,22.62
2018-11-04T12:38:59.008Z,22.66
2018-11-04T12:39:59.034Z,22.72
2018-11-04T12:40:58.984Z,22.66
2018-11-04T12:41:58.975Z,22.70
2018-11-04T12:42:58.963Z,22.65
2018-11-04T12:43:58.953Z,22.60
2018-11-04T12:44:58.973Z,22.63
2018-11-04T12:45:58.930Z,22.69
2018-11-04T12:46:58.917Z,22.69
2018-11-04T12:47:58.908Z,22.69
2018-11-04T12:48:58.895Z,22.68
2018-11-04T12:49:58.912Z,22.70
2018-11-04T12:50:58.874Z,22.62
2018-11-04T12:51:58.863Z,22.69